sensor_id;sensor_type;location;lat;lon;timestamp;temperature;humidity
39779;DHT22;25454;49.878;8.618;2023-06-24T00:01:45;18.80;92.80
39779;DHT22;25454;49.878;8.618;2023-06-24T00:06:46;18.80;92.90
39779;DHT22;25454;49.878;8.618;2023-06-24T00:11:46;18.70;92.90
39779;DHT22;25454;49.878;8.618;2023-06-24T00:16:47;18.70;93.50
39779;DHT22;25454;49.878;8.618;2023-06-24T00:21:52;18.60;93.30
39779;DHT22;25454;49.878;8.618;2023-06-24T00:26:53;18.50;93.50
39779;DHT22;25454;49.878;8.618;2023-06-24T00:31:54;18.40;93.70
39779;DHT22;25454;49.878;8.618;2023-06-24T00:36:55;18.40;94.10
39779;DHT22;25454;49.878;8.618;2023-06-24T00:41:58;18.30;94.50
39779;DHT22;25454;49.878;8.618;2023-06-24T00:46:59;18.30;94.70
39779;DHT22;25454;49.878;8.618;2023-06-24T00:52:00;18.20;94.70
39779;DHT22;25454;49.878;8.618;2023-06-24T00:57:01;18.20;95.00
39779;DHT22;25454;49.878;8.618;2023-06-24T01:02:01;18.20;95.20
39779;DHT22;25454;49.878;8.618;2023-06-24T01:07:02;18.20;95.20
39779;DHT22;25454;49.878;8.618;2023-06-24T01:12:04;18.20;95.40
39779;DHT22;25454;49.878;8.618;2023-06-24T01:17:15;18.10;95.90
39779;DHT22;25454;49.878;8.618;2023-06-24T01:28:04;18.00;96.10
39779;DHT22;25454;49.878;8.618;2023-06-24T01:33:10;18.00;96.40
39779;DHT22;25454;49.878;8.618;2023-06-24T01:38:23;17.90;96.70
39779;DHT22;25454;49.878;8.618;2023-06-24T01:43:25;17.90;97.00
39779;DHT22;25454;49.878;8.618;2023-06-24T01:48:29;17.80;97.10
39779;DHT22;25454;49.878;8.618;2023-06-24T01:53:38;17.80;97.50
39779;DHT22;25454;49.878;8.618;2023-06-24T01:58:42;17.70;97.60
39779;DHT22;25454;49.878;8.618;2023-06-24T02:03:43;17.70;98.00
39779;DHT22;25454;49.878;8.618;2023-06-24T02:08:46;17.70;98.20
39779;DHT22;25454;49.878;8.618;2023-06-24T02:13:51;17.70;98.60
39779;DHT22;25454;49.878;8.618;2023-06-24T02:18:52;17.60;99.00
39779;DHT22;25454;49.878;8.618;2023-06-24T02:23:53;17.60;99.40
39779;DHT22;25454;49.878;8.618;2023-06-24T02:28:54;17.50;99.80
39779;DHT22;25454;49.878;8.618;2023-06-24T02:33:58;17.50;99.90
39779;DHT22;25454;49.878;8.618;2023-06-24T02:38:59;17.40;99.90
39779;DHT22;25454;49.878;8.618;2023-06-24T02:44:00;17.40;99.90
39779;DHT22;25454;49.878;8.618;2023-06-24T02:49:01;17.30;99.90
39779;DHT22;25454;49.878;8.618;2023-06-24T02:54:02;17.30;99.90
39779;DHT22;25454;49.878;8.618;2023-06-24T02:59:03;17.30;99.90
39779;DHT22;25454;49.878;8.618;2023-06-24T03:04:04;17.30;99.90
39779;DHT22;25454;49.878;8.618;2023-06-24T03:09:06;17.30;99.90
39779;DHT22;25454;49.878;8.618;2023-06-24T03:14:08;17.30;99.90
39779;DHT22;25454;49.878;8.618;2023-06-24T03:19:08;17.30;99.90
39779;DHT22;25454;49.878;8.618;2023-06-24T03:24:09;17.30;99.90
39779;DHT22;25454;49.878;8.618;2023-06-24T03:29:10;17.30;99.90
39779;DHT22;25454;49.878;8.618;2023-06-24T03:34:11;17.30;99.90
39779;DHT22;25454;49.878;8.618;2023-06-24T03:39:18;17.30;99.90
39779;DHT22;25454;49.878;8.618;2023-06-24T03:44:18;17.40;99.90
39779;DHT22;25454;49.878;8.618;2023-06-24T03:49:20;17.50;99.90
39779;DHT22;25454;49.878;8.618;2023-06-24T03:54:20;17.60;99.90
39779;DHT22;25454;49.878;8.618;2023-06-24T03:59:21;17.60;99.90
39779;DHT22;25454;49.878;8.618;2023-06-24T04:04:22;17.70;99.90
39779;DHT22;25454;49.878;8.618;2023-06-24T04:09:23;17.80;99.90
39779;DHT22;25454;49.878;8.618;2023-06-24T04:14:24;18.00;99.90
39779;DHT22;25454;49.878;8.618;2023-06-24T04:19:24;18.30;99.90
39779;DHT22;25454;49.878;8.618;2023-06-24T04:24:25;18.40;99.90
39779;DHT22;25454;49.878;8.618;2023-06-24T04:29:26;18.60;99.90
39779;DHT22;25454;49.878;8.618;2023-06-24T04:34:26;18.80;99.90
39779;DHT22;25454;49.878;8.618;2023-06-24T04:39:30;19.00;99.90
39779;DHT22;25454;49.878;8.618;2023-06-24T04:44:30;19.40;99.90
39779;DHT22;25454;49.878;8.618;2023-06-24T04:49:31;19.60;99.90
39779;DHT22;25454;49.878;8.618;2023-06-24T04:54:32;19.70;99.90
39779;DHT22;25454;49.878;8.618;2023-06-24T04:59:35;19.70;99.90
39779;DHT22;25454;49.878;8.618;2023-06-24T05:04:36;19.80;99.90
39779;DHT22;25454;49.878;8.618;2023-06-24T05:09:37;20.80;99.30
39779;DHT22;25454;49.878;8.618;2023-06-24T05:14:38;23.50;94.30
39779;DHT22;25454;49.878;8.618;2023-06-24T05:19:38;26.10;87.80
39779;DHT22;25454;49.878;8.618;2023-06-24T05:24:39;27.90;77.10
39779;DHT22;25454;49.878;8.618;2023-06-24T05:29:41;28.90;71.20
39779;DHT22;25454;49.878;8.618;2023-06-24T05:34:42;30.00;65.80
39779;DHT22;25454;49.878;8.618;2023-06-24T05:39:42;30.80;62.20
39779;DHT22;25454;49.878;8.618;2023-06-24T05:44:43;31.40;59.40
39779;DHT22;25454;49.878;8.618;2023-06-24T05:49:43;32.30;57.20
39779;DHT22;25454;49.878;8.618;2023-06-24T05:54:44;32.70;54.90
39779;DHT22;25454;49.878;8.618;2023-06-24T05:59:50;33.10;54.20
39779;DHT22;25454;49.878;8.618;2023-06-24T06:04:51;33.40;53.30
39779;DHT22;25454;49.878;8.618;2023-06-24T06:09:52;34.10;52.10
39779;DHT22;25454;49.878;8.618;2023-06-24T06:14:52;34.50;50.30
39779;DHT22;25454;49.878;8.618;2023-06-24T06:19:53;35.10;49.60
39779;DHT22;25454;49.878;8.618;2023-06-24T06:24:53;36.00;48.40
39779;DHT22;25454;49.878;8.618;2023-06-24T06:29:54;36.30;46.40
39779;DHT22;25454;49.878;8.618;2023-06-24T06:34:54;36.70;46.20
39779;DHT22;25454;49.878;8.618;2023-06-24T06:39:55;36.60;45.80
39779;DHT22;25454;49.878;8.618;2023-06-24T06:44:58;37.20;44.80
39779;DHT22;25454;49.878;8.618;2023-06-24T06:49:59;37.20;44.50
39779;DHT22;25454;49.878;8.618;2023-06-24T06:55:00;37.80;43.00
39779;DHT22;25454;49.878;8.618;2023-06-24T07:00:00;37.80;42.10
39779;DHT22;25454;49.878;8.618;2023-06-24T07:05:01;38.10;41.60
39779;DHT22;25454;49.878;8.618;2023-06-24T07:10:02;38.70;41.00
39779;DHT22;25454;49.878;8.618;2023-06-24T07:15:03;38.90;39.80
39779;DHT22;25454;49.878;8.618;2023-06-24T07:20:04;39.10;39.40
39779;DHT22;25454;49.878;8.618;2023-06-24T07:25:05;39.80;38.70
39779;DHT22;25454;49.878;8.618;2023-06-24T07:30:06;40.30;37.80
39779;DHT22;25454;49.878;8.618;2023-06-24T07:35:07;40.80;36.70
39779;DHT22;25454;49.878;8.618;2023-06-24T07:40:08;41.10;36.00
39779;DHT22;25454;49.878;8.618;2023-06-24T07:45:09;41.00;36.40
39779;DHT22;25454;49.878;8.618;2023-06-24T07:50:10;41.50;35.40
39779;DHT22;25454;49.878;8.618;2023-06-24T07:55:11;41.80;35.40
39779;DHT22;25454;49.878;8.618;2023-06-24T08:00:12;42.10;34.80
39779;DHT22;25454;49.878;8.618;2023-06-24T08:05:13;42.80;33.60
39779;DHT22;25454;49.878;8.618;2023-06-24T08:10:14;43.10;33.40
39779;DHT22;25454;49.878;8.618;2023-06-24T08:15:14;43.00;33.10
39779;DHT22;25454;49.878;8.618;2023-06-24T08:20:15;42.70;33.20
39779;DHT22;25454;49.878;8.618;2023-06-24T08:25:16;43.20;32.50
39779;DHT22;25454;49.878;8.618;2023-06-24T08:30:16;43.30;33.50
39779;DHT22;25454;49.878;8.618;2023-06-24T08:35:17;43.80;31.90
39779;DHT22;25454;49.878;8.618;2023-06-24T08:40:21;44.50;30.60
39779;DHT22;25454;49.878;8.618;2023-06-24T08:45:21;44.50;30.20
39779;DHT22;25454;49.878;8.618;2023-06-24T08:50:23;43.90;30.20
39779;DHT22;25454;49.878;8.618;2023-06-24T08:55:27;42.20;31.60
39779;DHT22;25454;49.878;8.618;2023-06-24T09:00:29;43.60;31.10
39779;DHT22;25454;49.878;8.618;2023-06-24T09:05:29;44.70;29.20
39779;DHT22;25454;49.878;8.618;2023-06-24T09:10:31;45.60;28.90
39779;DHT22;25454;49.878;8.618;2023-06-24T09:15:33;46.00;28.40
39779;DHT22;25454;49.878;8.618;2023-06-24T09:20:34;45.60;29.20
39779;DHT22;25454;49.878;8.618;2023-06-24T09:25:39;45.30;28.50
39779;DHT22;25454;49.878;8.618;2023-06-24T09:30:40;44.80;28.40
39779;DHT22;25454;49.878;8.618;2023-06-24T09:35:42;45.10;29.00
39779;DHT22;25454;49.878;8.618;2023-06-24T09:40:45;46.10;27.80
39779;DHT22;25454;49.878;8.618;2023-06-24T09:45:49;46.40;27.60
39779;DHT22;25454;49.878;8.618;2023-06-24T09:50:50;47.00;26.70
39779;DHT22;25454;49.878;8.618;2023-06-24T09:55:52;45.60;27.50
39779;DHT22;25454;49.878;8.618;2023-06-24T10:00:54;44.20;27.90
39779;DHT22;25454;49.878;8.618;2023-06-24T10:05:55;43.10;28.80
39779;DHT22;25454;49.878;8.618;2023-06-24T10:10:59;44.10;28.60
39779;DHT22;25454;49.878;8.618;2023-06-24T10:16:01;45.70;27.40
39779;DHT22;25454;49.878;8.618;2023-06-24T10:21:02;46.50;26.20
39779;DHT22;25454;49.878;8.618;2023-06-24T10:26:08;46.70;26.60
39779;DHT22;25454;49.878;8.618;2023-06-24T10:31:08;47.90;25.90
39779;DHT22;25454;49.878;8.618;2023-06-24T10:36:31;47.30;26.10
39779;DHT22;25454;49.878;8.618;2023-06-24T10:41:32;44.50;26.00
39779;DHT22;25454;49.878;8.618;2023-06-24T10:46:33;44.10;27.10
39779;DHT22;25454;49.878;8.618;2023-06-24T10:51:33;43.70;27.50
39779;DHT22;25454;49.878;8.618;2023-06-24T10:56:34;42.30;28.60
39779;DHT22;25454;49.878;8.618;2023-06-24T11:01:52;40.60;29.90
39779;DHT22;25454;49.878;8.618;2023-06-24T11:06:59;42.10;29.80
39779;DHT22;25454;49.878;8.618;2023-06-24T11:12:03;41.10;30.40
39779;DHT22;25454;49.878;8.618;2023-06-24T11:17:04;38.20;33.60
39779;DHT22;25454;49.878;8.618;2023-06-24T11:22:05;39.10;33.60
39779;DHT22;25454;49.878;8.618;2023-06-24T11:27:06;39.40;31.30
39779;DHT22;25454;49.878;8.618;2023-06-24T11:32:08;40.70;30.10
39779;DHT22;25454;49.878;8.618;2023-06-24T11:37:14;42.80;28.90
39779;DHT22;25454;49.878;8.618;2023-06-24T11:42:15;42.50;29.00
39779;DHT22;25454;49.878;8.618;2023-06-24T11:47:23;39.90;31.30
39779;DHT22;25454;49.878;8.618;2023-06-24T11:52:44;37.80;33.60
39779;DHT22;25454;49.878;8.618;2023-06-24T11:57:57;35.70;34.90
39779;DHT22;25454;49.878;8.618;2023-06-24T12:03:00;34.00;37.60
39779;DHT22;25454;49.878;8.618;2023-06-24T12:08:09;33.30;38.20
39779;DHT22;25454;49.878;8.618;2023-06-24T12:13:10;33.00;38.90
39779;DHT22;25454;49.878;8.618;2023-06-24T12:18:11;32.80;38.70
39779;DHT22;25454;49.878;8.618;2023-06-24T12:23:12;32.40;38.20
39779;DHT22;25454;49.878;8.618;2023-06-24T12:28:13;31.90;39.20
39779;DHT22;25454;49.878;8.618;2023-06-24T12:33:13;32.20;39.20
39779;DHT22;25454;49.878;8.618;2023-06-24T12:38:14;32.30;39.20
39779;DHT22;25454;49.878;8.618;2023-06-24T12:43:16;32.20;39.50
39779;DHT22;25454;49.878;8.618;2023-06-24T12:48:16;31.30;40.40
39779;DHT22;25454;49.878;8.618;2023-06-24T12:53:17;30.50;42.70
39779;DHT22;25454;49.878;8.618;2023-06-24T12:58:23;30.80;41.40
39779;DHT22;25454;49.878;8.618;2023-06-24T13:03:25;31.40;41.10
39779;DHT22;25454;49.878;8.618;2023-06-24T13:08:25;31.90;39.60
39779;DHT22;25454;49.878;8.618;2023-06-24T13:13:26;32.00;39.60
39779;DHT22;25454;49.878;8.618;2023-06-24T13:18:26;31.70;40.00
39779;DHT22;25454;49.878;8.618;2023-06-24T13:23:27;31.60;39.60
39779;DHT22;25454;49.878;8.618;2023-06-24T13:28:28;32.00;39.50
39779;DHT22;25454;49.878;8.618;2023-06-24T13:33:28;31.80;39.90
39779;DHT22;25454;49.878;8.618;2023-06-24T13:38:29;31.30;40.80
39779;DHT22;25454;49.878;8.618;2023-06-24T13:43:30;30.60;41.90
39779;DHT22;25454;49.878;8.618;2023-06-24T13:48:31;30.00;43.10
39779;DHT22;25454;49.878;8.618;2023-06-24T13:53:31;29.60;43.70
39779;DHT22;25454;49.878;8.618;2023-06-24T13:58:32;29.40;43.30
39779;DHT22;25454;49.878;8.618;2023-06-24T14:03:32;29.30;43.50
39779;DHT22;25454;49.878;8.618;2023-06-24T14:08:33;29.40;43.20
39779;DHT22;25454;49.878;8.618;2023-06-24T14:13:34;30.00;42.20
39779;DHT22;25454;49.878;8.618;2023-06-24T14:18:37;30.80;41.10
39779;DHT22;25454;49.878;8.618;2023-06-24T14:23:38;31.60;40.50
39779;DHT22;25454;49.878;8.618;2023-06-24T14:28:40;31.70;39.90
39779;DHT22;25454;49.878;8.618;2023-06-24T14:33:41;31.60;40.50
39779;DHT22;25454;49.878;8.618;2023-06-24T14:38:41;31.20;42.00
39779;DHT22;25454;49.878;8.618;2023-06-24T14:43:46;30.70;42.90
39779;DHT22;25454;49.878;8.618;2023-06-24T14:48:46;30.30;43.40
39779;DHT22;25454;49.878;8.618;2023-06-24T14:53:47;30.20;44.20
39779;DHT22;25454;49.878;8.618;2023-06-24T14:58:48;30.20;44.20
39779;DHT22;25454;49.878;8.618;2023-06-24T15:03:48;30.20;44.00
39779;DHT22;25454;49.878;8.618;2023-06-24T15:08:50;30.20;44.20
39779;DHT22;25454;49.878;8.618;2023-06-24T15:13:51;30.40;43.50
39779;DHT22;25454;49.878;8.618;2023-06-24T15:18:51;30.30;43.20
39779;DHT22;25454;49.878;8.618;2023-06-24T15:23:52;30.40;43.10
39779;DHT22;25454;49.878;8.618;2023-06-24T15:28:52;30.50;43.40
39779;DHT22;25454;49.878;8.618;2023-06-24T15:33:54;30.50;43.20
39779;DHT22;25454;49.878;8.618;2023-06-24T15:38:55;30.60;43.30
39779;DHT22;25454;49.878;8.618;2023-06-24T15:43:56;30.50;43.50
39779;DHT22;25454;49.878;8.618;2023-06-24T15:48:56;30.20;44.10
39779;DHT22;25454;49.878;8.618;2023-06-24T15:54:00;30.10;44.60
39779;DHT22;25454;49.878;8.618;2023-06-24T15:59:01;30.00;44.90
39779;DHT22;25454;49.878;8.618;2023-06-24T16:04:03;29.90;43.60
39779;DHT22;25454;49.878;8.618;2023-06-24T16:09:03;29.90;43.80
39779;DHT22;25454;49.878;8.618;2023-06-24T16:14:04;29.70;43.70
39779;DHT22;25454;49.878;8.618;2023-06-24T16:19:05;29.50;44.30
39779;DHT22;25454;49.878;8.618;2023-06-24T16:24:05;29.20;45.10
39779;DHT22;25454;49.878;8.618;2023-06-24T16:29:06;29.20;45.40
39779;DHT22;25454;49.878;8.618;2023-06-24T16:34:07;29.00;45.90
39779;DHT22;25454;49.878;8.618;2023-06-24T16:39:08;29.20;45.90
39779;DHT22;25454;49.878;8.618;2023-06-24T16:44:08;29.10;45.90
39779;DHT22;25454;49.878;8.618;2023-06-24T16:49:09;28.90;46.20
39779;DHT22;25454;49.878;8.618;2023-06-24T16:54:09;29.00;46.60
39779;DHT22;25454;49.878;8.618;2023-06-24T16:59:10;28.90;46.60
39779;DHT22;25454;49.878;8.618;2023-06-24T17:04:13;28.90;46.60
39779;DHT22;25454;49.878;8.618;2023-06-24T17:09:14;28.70;46.70
39779;DHT22;25454;49.878;8.618;2023-06-24T17:14:14;28.50;47.10
39779;DHT22;25454;49.878;8.618;2023-06-24T17:19:15;28.60;47.00
39779;DHT22;25454;49.878;8.618;2023-06-24T17:24:19;28.50;46.50
39779;DHT22;25454;49.878;8.618;2023-06-24T17:29:19;28.40;47.30
39779;DHT22;25454;49.878;8.618;2023-06-24T17:34:20;28.30;48.00
39779;DHT22;25454;49.878;8.618;2023-06-24T17:39:20;28.20;47.20
39779;DHT22;25454;49.878;8.618;2023-06-24T17:44:21;28.20;47.20
39779;DHT22;25454;49.878;8.618;2023-06-24T17:49:21;28.10;47.40
39779;DHT22;25454;49.878;8.618;2023-06-24T17:54:22;28.00;47.90
39779;DHT22;25454;49.878;8.618;2023-06-24T17:59:23;27.90;47.50
39779;DHT22;25454;49.878;8.618;2023-06-24T18:04:23;27.90;47.70
39779;DHT22;25454;49.878;8.618;2023-06-24T18:09:24;27.90;48.20
39779;DHT22;25454;49.878;8.618;2023-06-24T18:14:24;27.80;48.20
39779;DHT22;25454;49.878;8.618;2023-06-24T18:19:25;27.80;48.10
39779;DHT22;25454;49.878;8.618;2023-06-24T18:24:26;27.70;48.50
39779;DHT22;25454;49.878;8.618;2023-06-24T18:29:26;27.70;48.80
39779;DHT22;25454;49.878;8.618;2023-06-24T18:34:27;27.50;48.40
39779;DHT22;25454;49.878;8.618;2023-06-24T18:39:30;27.50;49.20
39779;DHT22;25454;49.878;8.618;2023-06-24T18:44:31;27.40;49.70
39779;DHT22;25454;49.878;8.618;2023-06-24T18:49:31;27.30;49.30
39779;DHT22;25454;49.878;8.618;2023-06-24T18:54:32;27.20;49.60
39779;DHT22;25454;49.878;8.618;2023-06-24T18:59:33;27.10;50.40
39779;DHT22;25454;49.878;8.618;2023-06-24T19:04:33;26.90;50.80
39779;DHT22;25454;49.878;8.618;2023-06-24T19:09:34;26.80;51.40
39779;DHT22;25454;49.878;8.618;2023-06-24T19:14:34;26.70;52.70
39779;DHT22;25454;49.878;8.618;2023-06-24T19:19:35;26.50;52.60
39779;DHT22;25454;49.878;8.618;2023-06-24T19:24:35;26.30;53.10
39779;DHT22;25454;49.878;8.618;2023-06-24T19:29:37;26.20;53.70
39779;DHT22;25454;49.878;8.618;2023-06-24T19:34:38;26.00;54.20
39779;DHT22;25454;49.878;8.618;2023-06-24T19:39:39;25.80;54.90
39779;DHT22;25454;49.878;8.618;2023-06-24T19:44:39;25.60;55.80
39779;DHT22;25454;49.878;8.618;2023-06-24T19:49:53;25.50;56.30
39779;DHT22;25454;49.878;8.618;2023-06-24T19:54:54;25.30;56.90
39779;DHT22;25454;49.878;8.618;2023-06-24T19:59:54;25.10;57.70
39779;DHT22;25454;49.878;8.618;2023-06-24T20:04:55;24.90;58.80
39779;DHT22;25454;49.878;8.618;2023-06-24T20:09:55;24.80;58.60
39779;DHT22;25454;49.878;8.618;2023-06-24T20:14:56;24.70;58.90
39779;DHT22;25454;49.878;8.618;2023-06-24T20:19:56;24.60;59.30
39779;DHT22;25454;49.878;8.618;2023-06-24T20:24:57;24.60;59.80
39779;DHT22;25454;49.878;8.618;2023-06-24T20:29:58;24.50;60.30
39779;DHT22;25454;49.878;8.618;2023-06-24T20:34:58;24.50;60.60
39779;DHT22;25454;49.878;8.618;2023-06-24T20:39:59;24.50;60.70
39779;DHT22;25454;49.878;8.618;2023-06-24T20:44:59;24.40;61.20
39779;DHT22;25454;49.878;8.618;2023-06-24T20:50:00;24.30;61.00
39779;DHT22;25454;49.878;8.618;2023-06-24T20:55:01;24.30;61.00
39779;DHT22;25454;49.878;8.618;2023-06-24T21:00:02;24.20;61.30
39779;DHT22;25454;49.878;8.618;2023-06-24T21:05:04;24.00;61.80
39779;DHT22;25454;49.878;8.618;2023-06-24T21:10:04;23.90;62.00
39779;DHT22;25454;49.878;8.618;2023-06-24T21:15:06;23.90;63.40
39779;DHT22;25454;49.878;8.618;2023-06-24T21:20:07;23.80;62.80
39779;DHT22;25454;49.878;8.618;2023-06-24T21:25:08;23.80;62.70
39779;DHT22;25454;49.878;8.618;2023-06-24T21:30:09;23.80;62.90
39779;DHT22;25454;49.878;8.618;2023-06-24T21:35:10;23.70;64.00
39779;DHT22;25454;49.878;8.618;2023-06-24T21:40:11;23.60;63.50
39779;DHT22;25454;49.878;8.618;2023-06-24T21:45:12;23.60;63.80
39779;DHT22;25454;49.878;8.618;2023-06-24T21:50:12;23.50;64.10
39779;DHT22;25454;49.878;8.618;2023-06-24T21:55:13;23.50;64.60
39779;DHT22;25454;49.878;8.618;2023-06-24T22:00:14;23.50;66.00
39779;DHT22;25454;49.878;8.618;2023-06-24T22:05:18;23.40;65.30
39779;DHT22;25454;49.878;8.618;2023-06-24T22:10:19;23.20;65.70
39779;DHT22;25454;49.878;8.618;2023-06-24T22:15:19;23.10;66.00
39779;DHT22;25454;49.878;8.618;2023-06-24T22:20:20;23.10;66.10
39779;DHT22;25454;49.878;8.618;2023-06-24T22:25:21;23.00;66.30
39779;DHT22;25454;49.878;8.618;2023-06-24T22:30:21;23.00;66.60
39779;DHT22;25454;49.878;8.618;2023-06-24T22:35:23;23.00;67.20
39779;DHT22;25454;49.878;8.618;2023-06-24T22:40:23;22.90;67.30
39779;DHT22;25454;49.878;8.618;2023-06-24T22:45:25;22.80;67.40
39779;DHT22;25454;49.878;8.618;2023-06-24T22:50:26;22.70;67.50
39779;DHT22;25454;49.878;8.618;2023-06-24T22:55:26;22.70;68.70
39779;DHT22;25454;49.878;8.618;2023-06-24T23:00:27;22.60;69.50
39779;DHT22;25454;49.878;8.618;2023-06-24T23:05:28;22.50;70.30
39779;DHT22;25454;49.878;8.618;2023-06-24T23:10:29;22.40;71.00
39779;DHT22;25454;49.878;8.618;2023-06-24T23:15:30;22.30;71.80
39779;DHT22;25454;49.878;8.618;2023-06-24T23:20:31;22.30;70.20
39779;DHT22;25454;49.878;8.618;2023-06-24T23:25:31;22.20;69.40
39779;DHT22;25454;49.878;8.618;2023-06-24T23:30:33;22.30;69.90
39779;DHT22;25454;49.878;8.618;2023-06-24T23:35:36;22.30;69.50
39779;DHT22;25454;49.878;8.618;2023-06-24T23:40:37;22.30;69.70
39779;DHT22;25454;49.878;8.618;2023-06-24T23:45:38;22.20;69.30
39779;DHT22;25454;49.878;8.618;2023-06-24T23:50:38;22.30;69.30
39779;DHT22;25454;49.878;8.618;2023-06-24T23:55:39;22.20;69.60
